KTCL/TCL METAR and TAF weather

Enter ICAO airport designator
Station Type Date Time Source
KTCL METAR 2020/09/22 00:53 UTC NOAA

KTCL 220053Z AUTO 11005KT 10SM CLR 21/13 A3022 RMK AO2 SLP232 T02110128


Station Type Date Time Source
KTCL Decoded METAR 2020/09/22 00:53 UTC NOAA

TUSCALOOSA REGIONAL AIRPORT, AL, United States (KTCL) 33-13N 087-37W
Sep 21, 2020 - 08:53 PM EDT / 2020.09.22 0053 UTC
Wind: from the ESE (110 degrees) at 6 MPH (5 KT):0
Visibility: 10 mile(s):0
Sky conditions: clear
Temperature: 70.0 F (21.1 C)
Dew Point: 55.0 F (12.8 C)
Relative Humidity: 59%
Pressure (altimeter): 30.22 in. Hg (1023 hPa)
ob: KTCL 220053Z AUTO 11005KT 10SM CLR 21/13 A3022 RMK AO2 SLP232 T02110128
cycle: 1

Station Type Date Time Source
KTCL TAF 2020/09/21 18:36 UTC NOAA

TAF KTCL 211734Z 2118/2218 08011G18KT P6SM BKN250
FM212200 07008KT P6SM SCT250
FM221500 10008KT P6SM BKN200

Example: see airport list